Time;durP1;ratioP1;P1;durP2;ratioP2;P2;SDS_P1;SDS_P2;PMS_P1;PMS_P2;Temp;Humidity;BMP_temperature;BMP_pressure;BME280_temperature;BME280_humidity;BME280_pressure;Samples;Min_cycle;Max_cycle;Signal;HPM_P1;HPM_P2
2020/12/05 00:07:22;;;;;;;1999.90;999.90;;;;;;;4.03;70.22;99165.72;15839647;28;20039;-62
2020/12/05 00:14:55;;;;;;;1999.90;999.90;;;;;;;3.50;71.33;99141.25;15839412;28;20048;-60
2020/12/05 00:22:28;;;;;;;1999.90;999.90;;;;;;;3.03;73.96;99121.78;15846771;28;20067;-62
2020/12/05 00:30:01;;;;;;;;;;;;;;;2.75;75.08;99101.94;15859296;28;20301;-61
2020/12/05 00:37:35;;;;;;;1999.90;999.90;;;;;;;2.79;75.08;99100.16;15859096;28;20269;-61
2020/12/05 00:45:07;;;;;;;1999.90;999.90;;;;;;;2.74;75.40;99097.56;15858323;28;20047;-62
2020/12/05 00:52:41;;;;;;;1999.90;999.90;;;;;;;2.78;75.36;99088.31;15875850;28;20473;-62
2020/12/05 01:00:15;;;;;;;1999.90;999.90;;;;;;;2.82;75.20;99111.34;15875101;28;20063;-62
2020/12/05 01:07:49;;;;;;;1999.90;999.90;;;;;;;2.87;75.09;99122.22;15875063;28;20047;-62
2020/12/05 01:15:21;;;;;;;1999.90;999.90;;;;;;;2.96;74.51;99135.22;15874931;28;20055;-62
2020/12/05 01:22:55;;;;;;;1999.90;999.90;;;;;;;3.01;73.91;99129.53;15854926;28;20043;-61
2020/12/05 01:30:28;;;;;;;1999.90;999.90;;;;;;;2.85;74.61;99124.50;15873629;28;20069;-62
2020/12/05 01:38:02;;;;;;;1999.90;999.90;;;;;;;2.72;74.81;99114.41;15854816;28;20119;-61
2020/12/05 01:45:36;;;;;;;1999.90;999.90;;;;;;;2.86;74.16;99109.56;15854893;28;20066;-61
2020/12/05 01:53:10;;;;;;;1999.90;999.90;;;;;;;2.67;75.06;99114.53;15853787;28;20043;-61
2020/12/05 02:00:49;;;;;;;1999.90;999.90;;;;;;;2.56;75.27;99121.47;15853179;28;20047;-62
2020/12/05 02:08:31;;;;;;;1999.90;999.90;;;;;;;2.54;75.17;99123.75;15852841;28;20134;-61
2020/12/05 02:16:05;;;;;;;1999.90;999.90;;;;;;;2.62;75.11;99124.91;15852266;28;20048;-62
2020/12/05 02:23:39;;;;;;;1999.90;999.90;;;;;;;2.56;75.12;99126.97;15870439;28;20628;-62
2020/12/05 02:31:21;;;;;;;1999.90;999.90;;;;;;;2.60;74.97;99131.56;15869830;28;20043;-62
2020/12/05 02:39:05;;;;;;;1999.90;999.90;;;;;;;2.92;73.92;99137.81;15869410;28;20497;-62
2020/12/05 02:46:38;;;;;;;1999.90;999.90;;;;;;;2.72;74.62;99117.16;15869034;28;20039;-62
2020/12/05 02:54:12;;;;;;;1999.90;999.90;;;;;;;2.82;74.10;99132.59;15868798;28;20047;-62
2020/12/05 03:01:44;;;;;;;1999.90;999.90;;;;;;;3.03;73.01;99147.38;15868530;28;20089;-62
2020/12/05 03:09:18;;;;;;;1999.90;999.90;;;;;;;2.65;74.59;99121.50;15847936;28;20488;-61
2020/12/05 03:16:50;;;;;;;1999.90;999.90;;;;;;;2.57;74.84;99132.16;15850018;28;20039;-61
2020/12/05 03:24:23;;;;;;;1999.90;999.90;;;;;;;2.64;74.84;99128.16;15850167;28;20293;-62
2020/12/05 03:32:08;;;;;;;1999.90;999.90;;;;;;;2.37;75.38;99110.72;15849838;28;20052;-62
2020/12/05 03:39:42;;;;;;;1999.90;999.90;;;;;;;2.82;74.08;99119.63;15849931;28;20165;-62
2020/12/05 03:47:18;;;;;;;1999.90;999.90;;;;;;;2.86;73.88;99125.28;15838022;28;20048;-62
2020/12/05 03:54:51;;;;;;;1999.90;999.90;;;;;;;2.60;74.94;99048.09;15880045;28;20050;-62
2020/12/05 04:02:24;;;;;;;1999.90;999.90;;;;;;;2.62;75.57;98967.94;15861492;28;20051;-62
2020/12/05 04:09:58;;;;;;;1999.90;999.90;;;;;;;2.69;75.28;98911.22;15862954;28;20104;-62
2020/12/05 04:17:32;;;;;;;1999.90;999.90;;;;;;;3.00;74.55;98944.09;15868016;28;20475;-61
2020/12/05 04:25:05;;;;;;;1999.90;999.90;;;;;;;3.19;73.62;98963.06;15863411;28;20047;-62
2020/12/05 04:32:37;;;;;;;1999.90;999.90;;;;;;;3.16;73.75;98960.97;15797570;28;20497;-62
2020/12/05 04:40:11;;;;;;;1999.90;999.90;;;;;;;3.53;72.57;99022.84;15800246;28;20047;-62
2020/12/05 04:47:44;;;;;;;1999.90;999.90;;;;;;;3.81;71.26;99059.13;15797041;28;20032;-61
2020/12/05 04:55:22;;;;;;;1999.90;999.90;;;;;;;3.75;71.44;99079.75;15794419;28;20040;-62
2020/12/05 05:02:59;;;;;;;1999.90;999.90;;;;;;;3.91;70.79;99096.59;15812398;28;20402;-62
2020/12/05 05:10:34;;;;;;;1999.90;999.90;;;;;;;4.07;70.31;99059.06;15793150;28;20044;-61
2020/12/05 05:18:09;;;;;;;1999.90;999.90;;;;;;;3.87;70.89;99093.69;15793237;28;20047;-61
2020/12/05 05:25:50;;;;;;;1999.90;999.90;;;;;;;3.71;71.33;99107.19;15809712;28;20047;-60
2020/12/05 05:33:23;;;;;;;1999.90;999.90;;;;;;;3.50;72.13;99124.72;15855499;28;20047;-60
2020/12/05 05:41:12;;;;;;;1999.90;999.90;;;;;;;3.29;72.66;99119.03;15855608;28;20097;-62
2020/12/05 05:48:48;;;;;;;1999.90;999.90;;;;;;;3.28;72.75;99131.19;15855041;28;20039;-61
2020/12/05 05:56:31;;;;;;;1999.90;999.90;;;;;;;3.27;72.38;99138.66;15856619;28;20458;-60
2020/12/05 06:04:13;;;;;;;1999.90;999.90;;;;;;;3.52;71.14;99169.31;15872139;28;20051;-60
2020/12/05 06:11:50;;;;;;;1999.90;999.90;;;;;;;3.62;70.67;99202.09;15852253;28;20096;-60
2020/12/05 06:19:25;;;;;;;1999.90;999.90;;;;;;;3.51;70.38;99223.66;15871484;28;20489;-60
2020/12/05 06:27:02;;;;;;;1999.90;999.90;;;;;;;3.33;70.63;99213.75;15854343;28;20473;-60
2020/12/05 06:34:43;;;;;;;1999.90;999.90;;;;;;;3.05;72.04;99211.25;15806667;28;20044;-60
2020/12/05 06:42:20;;;;;;;1999.90;999.90;;;;;;;3.19;72.54;99230.41;15806202;28;20072;-60
2020/12/05 06:49:57;;;;;;;1999.90;999.90;;;;;;;3.27;70.56;99223.31;15805647;28;20044;-61
2020/12/05 06:57:32;;;;;;;1999.90;999.90;;;;;;;2.96;73.22;99226.94;15806436;28;20055;-61
2020/12/05 07:05:25;;;;;;;1999.90;999.90;;;;;;;2.73;74.39;99212.44;15805646;28;20444;-60
2020/12/05 07:13:12;;;;;;;1999.90;999.90;;;;;;;3.13;73.42;99239.97;15786959;28;20056;-60
2020/12/05 07:20:46;;;;;;;1999.90;999.90;;;;;;;3.00;73.98;99232.63;15808452;28;20119;-61
2020/12/05 07:28:20;;;;;;;1999.90;999.90;;;;;;;3.68;72.24;99247.72;15856936;28;20528;-60
2020/12/05 07:35:58;;;;;;;1999.90;999.90;;;;;;;3.82;72.02;99261.34;15880477;28;20092;-61
2020/12/05 07:43:40;;;;;;;1999.90;999.90;;;;;;;3.84;71.28;99276.44;15862140;28;20465;-60
2020/12/05 07:51:18;;;;;;;1999.90;999.90;;;;;;;4.18;70.39;99303.28;15879795;28;20124;-61
2020/12/05 07:58:56;;;;;;;1999.90;999.90;;;;;;;4.39;69.57;99317.22;15879899;28;20100;-60
2020/12/05 08:06:54;;;;;;;1999.90;999.90;;;;;;;4.51;69.63;99353.28;15878850;28;20109;-61
2020/12/05 08:14:35;;;;;;;1999.90;999.90;;;;;;;4.75;69.31;99383.16;15861219;28;20105;-61
2020/12/05 08:22:22;;;;;;;1999.90;999.90;;;;;;;4.73;68.42;99371.63;15861617;28;20135;-62
2020/12/05 08:30:00;;;;;;;1999.90;999.90;;;;;;;4.82;68.73;99402.03;15861085;28;20090;-62
2020/12/05 08:37:43;;;;;;;;;;;;;;;4.74;69.88;99424.94;15863622;28;20171;-61
2020/12/05 08:45:21;;;;;;;1999.90;999.90;;;;;;;4.38;70.55;99403.16;15877581;28;20253;-60
2020/12/05 08:53:01;;;;;;;1999.90;999.90;;;;;;;4.42;70.91;99374.56;15857840;28;20082;-60
2020/12/05 09:00:38;;;;;;;1999.90;999.90;;;;;;;4.81;69.82;99395.69;15857114;28;20056;-61
2020/12/05 09:08:19;;;;;;;1999.90;999.90;;;;;;;5.10;69.58;99488.97;15856622;28;20505;-61
2020/12/05 09:16:03;;;;;;;1999.90;999.90;;;;;;;7.53;62.48;99491.31;15855837;28;20116;-62
2020/12/05 09:23:40;;;;;;;1999.90;999.90;;;;;;;9.27;57.05;99476.63;15856805;28;20070;-60
2020/12/05 09:31:17;;;;;;;1999.90;999.90;;;;;;;10.00;56.43;99515.22;15855082;28;20043;-61
2020/12/05 09:38:50;;;;;;;1999.90;999.90;;;;;;;11.07;53.76;99536.59;15854902;28;20466;-61
2020/12/05 09:46:24;;;;;;;1999.90;999.90;;;;;;;11.34;52.75;99531.97;15870988;28;20047;-61
2020/12/05 09:53:57;;;;;;;1999.90;999.90;;;;;;;12.24;51.01;99532.56;15852440;27;20073;-61
2020/12/05 10:01:31;;;;;;;1999.90;999.90;;;;;;;12.89;48.69;99546.41;15885315;27;20445;-62
2020/12/05 10:09:04;;;;;;;1999.90;999.90;;;;;;;11.85;51.46;99585.75;15934149;27;20043;-56
2020/12/05 10:16:40;;;;;;;1999.90;999.90;;;;;;;11.64;52.26;99611.22;15933847;27;20039;-59
2020/12/05 10:24:12;;;;;;;1999.90;999.90;;;;;;;12.58;49.65;99645.44;15915143;27;20486;-63
2020/12/05 10:31:48;;;;;;;1999.90;999.90;;;;;;;12.40;49.00;99640.38;15875311;27;20036;-60
2020/12/05 10:39:21;;;;;;;1999.90;999.90;;;;;;;12.24;49.16;99652.81;15869518;28;20100;-58
2020/12/05 10:46:55;;;;;;;1999.90;999.90;;;;;;;10.95;51.21;99646.38;15868952;28;20040;-59
2020/12/05 10:54:31;;;;;;;1999.90;999.90;;;;;;;11.88;48.71;99618.56;15850661;28;20112;-58
2020/12/05 11:02:09;;;;;;;1999.90;999.90;;;;;;;10.28;52.65;99615.56;15868561;28;20044;-63
2020/12/05 11:09:42;;;;;;;;;;;;;;;10.28;52.29;99637.88;15833139;28;20098;-50
2020/12/05 11:17:16;;;;;;;1999.90;999.90;;;;;;;9.76;52.85;99655.47;15869880;28;19923;-57
2020/12/05 11:24:49;;;;;;;1999.90;999.90;;;;;;;9.41;53.87;99701.75;15868441;28;20482;-63
2020/12/05 11:32:23;;;;;;;1999.90;999.90;;;;;;;9.23;54.30;99712.31;15849442;28;20036;-61
2020/12/05 11:39:56;;;;;;;1999.90;999.90;;;;;;;9.34;54.05;99726.56;15850848;28;20048;-61
2020/12/05 11:47:30;;;;;;;1999.90;999.90;;;;;;;9.65;52.76;99704.50;15867590;27;20039;-60
2020/12/05 11:55:03;;;;;;;1999.90;999.90;;;;;;;10.91;50.48;99690.13;15910904;27;20047;-61
2020/12/05 12:02:37;;;;;;;1999.90;999.90;;;;;;;12.71;46.13;99700.06;15886572;27;20523;-61
2020/12/05 12:10:09;;;;;;;;;;;;;;;11.65;48.77;99737.78;15873210;28;20489;-62
2020/12/05 12:17:43;;;;;;;1999.90;999.90;;;;;;;10.77;49.55;99751.16;15858338;28;19953;-61
2020/12/05 12:25:16;;;;;;;1999.90;999.90;;;;;;;10.16;51.17;99788.44;15858068;28;20054;-59
2020/12/05 12:32:50;;;;;;;1999.90;999.90;;;;;;;9.95;51.44;99779.44;15877687;27;20071;-62
2020/12/05 12:40:23;;;;;;;1999.90;999.90;;;;;;;10.33;51.18;99788.19;15880502;27;20050;-62
2020/12/05 12:48:36;;;;;;;1999.90;999.90;;;;;;;10.00;52.10;99826.53;15886233;27;20043;-62
2020/12/05 12:55:53;;;;;;;1999.90;999.90;;;;;;;9.84;52.70;99832.84;15902470;27;20092;-62
2020/12/05 13:03:26;;;;;;;1999.90;999.90;;;;;;;9.79;52.56;99854.53;15919392;27;20055;-62
2020/12/05 13:11:01;;;;;;;;;;;;;;;9.62;53.27;99857.59;15903778;27;20047;-61
2020/12/05 13:18:35;;;;;;;1999.90;999.90;;;;;;;9.37;53.47;99881.78;15885229;27;20364;-62
2020/12/05 13:26:08;;;;;;;1999.90;999.90;;;;;;;9.15;54.30;99857.97;15855398;28;20051;-62
2020/12/05 13:33:41;;;;;;;1999.90;999.90;;;;;;;9.26;54.37;99862.75;15855784;28;20040;-61
2020/12/05 13:41:14;;;;;;;;;;;;;;;9.26;54.24;99878.63;15855405;28;20075;-62
2020/12/05 13:48:47;;;;;;;1999.90;999.90;;;;;;;9.20;54.52;99893.94;15838660;28;19920;-62
2020/12/05 13:56:20;;;;;;;1999.90;999.90;;;;;;;8.94;55.38;99922.00;15872694;28;20420;-61
2020/12/05 14:03:54;;;;;;;1999.90;999.90;;;;;;;8.89;55.47;99925.00;15853988;28;20039;-61
2020/12/05 14:11:26;;;;;;;1999.90;999.90;;;;;;;8.55;56.60;99948.38;15871656;28;20061;-61
2020/12/05 14:19:00;;;;;;;1999.90;999.90;;;;;;;8.79;56.15;99948.50;15871056;28;20501;-61
2020/12/05 14:26:32;;;;;;;1999.90;999.90;;;;;;;8.56;56.31;99939.69;15870517;28;20040;-62
2020/12/05 14:34:06;;;;;;;1999.90;999.90;;;;;;;8.86;55.78;99943.22;15870470;28;20048;-62
2020/12/05 14:41:40;;;;;;;1999.90;999.90;;;;;;;8.76;56.31;99945.59;15870192;28;20047;-61
2020/12/05 14:49:14;;;;;;;1999.90;999.90;;;;;;;8.84;56.04;99964.97;15870276;27;20039;-61
2020/12/05 14:56:46;;;;;;;;;;;;;;;8.76;56.42;99942.81;15869607;27;20043;-62
2020/12/05 15:04:20;;;;;;;1999.90;999.90;;;;;;;8.74;56.68;99936.75;15913790;27;19919;-62
2020/12/05 15:11:52;;;;;;;1999.90;999.90;;;;;;;8.85;56.22;99955.47;15861041;28;20408;-62
2020/12/05 15:19:26;;;;;;;1999.90;999.90;;;;;;;8.76;56.67;99973.41;15850100;28;20127;-62
2020/12/05 15:26:58;;;;;;;1999.90;999.90;;;;;;;8.75;56.47;99977.31;15848880;28;20038;-62
2020/12/05 15:34:33;;;;;;;1999.90;999.90;;;;;;;8.76;56.74;99956.72;15848565;28;20047;-63
2020/12/05 15:42:06;;;;;;;1999.90;999.90;;;;;;;8.49;57.79;99936.63;15850625;28;20032;-62
2020/12/05 15:49:39;;;;;;;1999.90;999.90;;;;;;;8.33;58.38;99943.88;15859875;28;20067;-62
2020/12/05 15:57:12;;;;;;;1999.90;999.90;;;;;;;8.19;59.05;99973.88;15860298;28;20043;-60
2020/12/05 16:04:45;;;;;;;1999.90;999.90;;;;;;;8.09;59.49;99997.31;15859404;28;20054;-61
2020/12/05 16:12:18;;;;;;;1999.90;999.90;;;;;;;8.01;59.77;99995.38;15842653;28;20044;-63
2020/12/05 16:19:51;;;;;;;1999.90;999.90;;;;;;;7.89;59.55;99996.06;15877103;28;20035;-63
2020/12/05 16:27:26;;;;;;;1999.90;999.90;;;;;;;7.63;60.09;100028.69;15876052;28;20047;-62
2020/12/05 16:34:59;;;;;;;1999.90;999.90;;;;;;;7.89;59.20;100015.53;15858305;28;20049;-63
2020/12/05 16:42:32;;;;;;;1999.90;999.90;;;;;;;7.51;59.93;100044.06;15856981;28;20032;-60
2020/12/05 16:50:06;;;;;;;1999.90;999.90;;;;;;;7.70;59.99;100020.63;15874543;28;20040;-62
2020/12/05 16:57:39;;;;;;;1999.90;999.90;;;;;;;7.62;60.02;100040.94;15855601;28;20057;-62
2020/12/05 17:05:12;;;;;;;1999.90;999.90;;;;;;;7.61;60.73;100030.94;15856034;28;20047;-61
2020/12/05 17:12:45;;;;;;;1999.90;999.90;;;;;;;6.68;63.32;100053.66;15855475;28;20046;-62
2020/12/05 17:20:18;;;;;;;1999.90;999.90;;;;;;;7.01;62.80;100034.59;15837778;28;20358;-62
2020/12/05 17:27:51;;;;;;;1999.90;999.90;;;;;;;6.41;65.12;100049.16;15872133;28;20036;-62
2020/12/05 17:35:25;;;;;;;1999.90;999.90;;;;;;;6.49;64.58;100051.16;15872021;28;20044;-61
2020/12/05 17:42:58;;;;;;;1999.90;999.90;;;;;;;6.72;64.15;100024.94;15872328;28;20036;-62
2020/12/05 17:50:31;;;;;;;1999.90;999.90;;;;;;;7.14;62.86;100034.44;15853140;28;20462;-62
2020/12/05 17:58:04;;;;;;;1999.90;999.90;;;;;;;7.46;61.92;100029.50;15853213;28;20044;-61
2020/12/05 18:05:38;;;;;;;1999.90;999.90;;;;;;;7.47;62.00;100036.69;15853423;28;20047;-60
2020/12/05 18:13:11;;;;;;;1999.90;999.90;;;;;;;7.27;62.41;100018.75;15852902;28;20130;-56
2020/12/05 18:20:44;;;;;;;1999.90;999.90;;;;;;;7.22;62.70;100008.66;15870333;28;20409;-60
2020/12/05 18:28:17;;;;;;;1999.90;999.90;;;;;;;7.00;63.28;100013.56;15852253;28;20066;-62
2020/12/05 18:35:50;;;;;;;1999.90;999.90;;;;;;;6.94;63.11;99988.75;15851708;28;20397;-62
2020/12/05 18:43:23;;;;;;;1999.90;999.90;;;;;;;6.91;62.98;99986.63;15869483;28;20051;-62
2020/12/05 18:50:56;;;;;;;1999.90;999.90;;;;;;;6.97;63.30;99987.25;15853180;28;20047;-61
2020/12/05 18:58:30;;;;;;;1999.90;999.90;;;;;;;6.98;63.51;100010.28;15850526;28;20085;-61
2020/12/05 19:06:04;;;;;;;;;;;;;;;7.20;62.78;100026.78;15850423;28;20051;-60
2020/12/05 19:13:36;;;;;;;1999.90;999.90;;;;;;;6.98;63.18;100024.94;15868421;28;19924;-60
2020/12/05 19:21:09;;;;;;;1999.90;999.90;;;;;;;6.71;63.77;100022.50;15833281;28;20044;-60
2020/12/05 19:28:42;;;;;;;1999.90;999.90;;;;;;;6.63;63.81;100030.47;15850598;28;20085;-61
2020/12/05 19:36:19;;;;;;;1999.90;999.90;;;;;;;6.49;63.85;100010.41;15851750;28;20055;-61
2020/12/05 19:43:51;;;;;;;1999.90;999.90;;;;;;;6.34;64.40;100019.97;15869332;28;20075;-61
2020/12/05 19:51:25;;;;;;;1999.90;999.90;;;;;;;6.22;64.90;100010.63;15852347;28;20059;-61
2020/12/05 19:58:57;;;;;;;;;;;;;;;6.34;64.49;100024.69;15851091;28;20062;-61
2020/12/05 20:06:31;;;;;;;1999.90;999.90;;;;;;;6.23;65.58;100043.56;15869283;28;19919;-61
2020/12/05 20:14:04;;;;;;;1999.90;999.90;;;;;;;6.20;65.18;100052.50;15869176;28;20048;-62
2020/12/05 20:21:40;;;;;;;1999.90;999.90;;;;;;;6.16;65.65;100039.63;15832024;28;20059;-60
2020/12/05 20:29:13;;;;;;;1999.90;999.90;;;;;;;6.08;65.77;100030.97;15852120;28;20122;-61
2020/12/05 20:36:46;;;;;;;1999.90;999.90;;;;;;;5.86;66.52;100013.56;15858880;28;20043;-62
2020/12/05 20:44:19;;;;;;;1999.90;999.90;;;;;;;5.70;66.82;100024.22;15876548;28;20415;-61
2020/12/05 20:51:52;;;;;;;1999.90;999.90;;;;;;;5.76;66.48;100015.47;15876005;28;20040;-61
2020/12/05 20:59:25;;;;;;;1999.90;999.90;;;;;;;5.75;66.39;100036.00;15857908;28;20039;-61
2020/12/05 21:06:59;;;;;;;1999.90;999.90;;;;;;;5.45;67.41;100032.06;15876472;28;20085;-63
2020/12/05 21:14:31;;;;;;;1999.90;999.90;;;;;;;5.71;67.37;100059.06;15857834;28;20054;-63
2020/12/05 21:22:08;;;;;;;1999.90;999.90;;;;;;;5.86;67.73;100038.50;15856370;28;20413;-63
2020/12/05 21:29:40;;;;;;;1999.90;999.90;;;;;;;5.97;66.86;100054.53;15874367;28;20448;-61
2020/12/05 21:37:14;;;;;;;1999.90;999.90;;;;;;;6.10;66.72;100051.97;15856607;28;20036;-61
2020/12/05 21:44:47;;;;;;;1999.90;999.90;;;;;;;6.18;67.29;100046.47;15856476;28;20051;-62
2020/12/05 21:52:20;;;;;;;1999.90;999.90;;;;;;;6.28;66.30;100020.44;15873812;28;20046;-61
2020/12/05 21:59:53;;;;;;;1999.90;999.90;;;;;;;6.32;66.37;100013.13;15872928;28;20040;-62
2020/12/05 22:07:26;;;;;;;1999.90;999.90;;;;;;;6.43;66.33;100019.97;15854615;28;20071;-62
2020/12/05 22:14:59;;;;;;;1999.90;999.90;;;;;;;6.52;66.04;100020.00;15835899;28;20449;-62
2020/12/05 22:22:36;;;;;;;1999.90;999.90;;;;;;;6.48;66.61;100008.75;15870750;28;20142;-63
2020/12/05 22:30:08;;;;;;;1999.90;999.90;;;;;;;6.50;65.77;99998.16;15834979;28;20127;-63
2020/12/05 22:37:41;;;;;;;1999.90;999.90;;;;;;;6.59;65.54;100006.50;15851414;28;20497;-63
2020/12/05 22:45:14;;;;;;;1999.90;999.90;;;;;;;6.50;66.21;99987.09;15851656;28;20489;-61
2020/12/05 22:52:47;;;;;;;1999.90;999.90;;;;;;;6.40;66.12;99978.25;15850865;28;20080;-61
2020/12/05 23:00:44;;;;;;;1999.90;999.90;;;;;;;6.79;65.57;100002.28;15869116;28;20412;-60
2020/12/05 23:08:19;;;;;;;1999.90;999.90;;;;;;;6.74;64.90;99994.13;15869390;28;20039;-61
2020/12/05 23:15:51;;;;;;;1999.90;999.90;;;;;;;6.58;65.47;99960.53;15834297;28;20105;-61
2020/12/05 23:23:25;;;;;;;1999.90;999.90;;;;;;;6.64;65.35;99956.44;15869035;28;20039;-61
2020/12/05 23:38:51;;;;;;;1999.90;999.90;;;;;;;6.88;64.68;99967.88;15863143;28;20055;-61
2020/12/05 23:46:23;;;;;;;1999.90;999.90;;;;;;;6.84;64.75;99966.88;15868898;28;20489;-61
2020/12/05 23:53:57;;;;;;;1999.90;999.90;;;;;;;6.86;65.61;99956.28;15851087;28;20051;-61
